createdAt,value
2023-01-13T00:01:17.493Z,9.90
2023-01-13T00:03:45.350Z,9.90
2023-01-13T00:06:18.554Z,9.90
2023-01-13T00:08:48.199Z,9.90
2023-01-13T00:11:15.224Z,9.90
2023-01-13T00:13:42.264Z,9.90
2023-01-13T00:16:12.554Z,9.90
2023-01-13T00:18:39.633Z,9.90
2023-01-13T00:21:14.404Z,9.90
2023-01-13T00:23:42.370Z,9.90
2023-01-13T00:26:18.255Z,9.90
2023-01-13T00:28:45.269Z,9.90
2023-01-13T00:31:15.703Z,9.90
2023-01-13T00:33:45.452Z,9.90
2023-01-13T00:36:15.003Z,9.90
2023-01-13T00:38:45.740Z,9.90
2023-01-13T00:41:19.691Z,9.90
2023-01-13T00:43:47.610Z,9.90
2023-01-13T00:46:17.271Z,9.90
2023-01-13T00:48:46.997Z,9.90
2023-01-13T00:51:17.584Z,9.90
2023-01-13T00:53:47.452Z,9.90
2023-01-13T00:56:18.221Z,9.90
2023-01-13T00:58:49.263Z,9.90
2023-01-13T01:01:22.152Z,9.90
2023-01-13T01:03:50.834Z,10.00
2023-01-13T01:06:20.378Z,10.00
2023-01-13T01:08:50.196Z,10.00
2023-01-13T01:11:20.826Z,10.00
2023-01-13T01:13:54.343Z,10.00
2023-01-13T01:16:22.985Z,10.00
2023-01-13T01:18:51.467Z,10.00
2023-01-13T01:21:19.508Z,10.00
2023-01-13T01:23:46.688Z,10.00
2023-01-13T01:26:15.390Z,10.00
2023-01-13T01:28:42.804Z,10.00
2023-01-13T01:31:15.293Z,10.00
2023-01-13T01:33:42.443Z,10.00
2023-01-13T01:36:11.542Z,10.00
2023-01-13T01:38:40.735Z,10.00
2023-01-13T01:41:07.970Z,10.00
2023-01-13T01:44:19.612Z,10.00
2023-01-13T01:46:46.634Z,10.00
2023-01-13T01:49:21.393Z,10.00
2023-01-13T01:51:59.371Z,10.00
2023-01-13T01:55:06.090Z,10.00
2023-01-13T01:57:53.393Z,10.00
2023-01-13T02:00:20.999Z,10.00
2023-01-13T02:02:50.395Z,10.00
2023-01-13T02:05:17.960Z,10.00
2023-01-13T02:07:47.722Z,10.10
2023-01-13T02:10:18.438Z,10.00
2023-01-13T02:12:47.157Z,10.10
2023-01-13T02:15:18.187Z,10.10
2023-01-13T02:17:44.951Z,10.10
2023-01-13T02:20:20.911Z,10.10
2023-01-13T02:22:56.848Z,10.00
2023-01-13T02:25:44.586Z,10.00
2023-01-13T02:28:25.346Z,10.00
2023-01-13T02:31:27.165Z,10.00
2023-01-13T02:34:10.079Z,10.00
2023-01-13T02:36:52.106Z,10.00
2023-01-13T02:39:30.043Z,10.00
2023-01-13T02:42:31.622Z,10.00
2023-01-13T02:45:09.493Z,10.00
2023-01-13T02:47:39.354Z,10.00
2023-01-13T02:50:21.097Z,10.00
2023-01-13T02:56:50.932Z,10.00
2023-01-13T02:59:26.184Z,10.00
2023-01-13T03:01:58.303Z,10.00
2023-01-13T03:04:52.268Z,10.00
2023-01-13T03:07:59.692Z,10.00
2023-01-13T03:10:48.772Z,10.00
2023-01-13T03:13:41.673Z,10.00
2023-01-13T03:16:52.352Z,10.00
2023-01-13T03:19:25.300Z,10.00
2023-01-13T03:21:59.374Z,10.00
2023-01-13T03:24:37.374Z,10.00
2023-01-13T03:27:20.839Z,10.00
2023-01-13T03:30:23.684Z,10.00
2023-01-13T03:33:01.028Z,10.00
2023-01-13T03:35:33.812Z,10.00
2023-01-13T03:38:09.176Z,9.90
2023-01-13T03:40:42.978Z,9.90
2023-01-13T03:43:35.209Z,9.90
2023-01-13T03:46:15.864Z,9.90
2023-01-13T03:48:46.738Z,9.90
2023-01-13T03:51:19.300Z,9.80
2023-01-13T03:53:52.101Z,9.80
2023-01-13T03:56:34.095Z,9.80
2023-01-13T03:59:05.163Z,9.80
2023-01-13T04:01:34.420Z,9.80
2023-01-13T04:04:05.660Z,9.90
2023-01-13T04:06:49.005Z,9.80
2023-01-13T04:09:42.604Z,9.80
2023-01-13T04:12:48.337Z,9.90
2023-01-13T04:15:21.941Z,9.80
2023-01-13T04:17:49.613Z,9.80
2023-01-13T04:20:17.178Z,9.80
2023-01-13T04:22:44.076Z,9.80
2023-01-13T04:25:11.549Z,9.80
2023-01-13T04:27:38.475Z,9.80
2023-01-13T04:30:08.372Z,9.90
2023-01-13T04:32:37.743Z,9.80
2023-01-13T04:35:05.303Z,9.80
2023-01-13T04:37:32.186Z,9.80
2023-01-13T04:39:59.038Z,9.80
2023-01-13T04:42:28.291Z,9.80
2023-01-13T04:44:57.242Z,9.80
2023-01-13T04:47:24.068Z,9.80
2023-01-13T04:49:50.942Z,9.80
2023-01-13T04:52:22.713Z,9.70
2023-01-13T04:54:52.045Z,9.80
2023-01-13T04:57:21.421Z,9.80
2023-01-13T04:59:48.249Z,9.80
2023-01-13T05:02:19.777Z,9.80
2023-01-13T05:04:50.047Z,9.80
2023-01-13T05:07:17.355Z,9.80
2023-01-13T05:09:44.224Z,9.90
2023-01-13T05:12:29.600Z,9.90
2023-01-13T05:15:17.473Z,9.90
2023-01-13T05:17:46.842Z,10.00
2023-01-13T05:20:14.375Z,10.00
2023-01-13T05:23:02.684Z,10.00
2023-01-13T05:25:37.572Z,10.00
2023-01-13T05:28:07.958Z,10.00
2023-01-13T05:30:43.588Z,10.00
2023-01-13T05:33:16.338Z,10.00
2023-01-13T05:35:45.337Z,10.00
2023-01-13T05:38:13.220Z,10.00
2023-01-13T05:40:59.766Z,10.00
2023-01-13T05:43:28.000Z,10.00
2023-01-13T05:46:02.556Z,10.00
2023-01-13T05:48:34.534Z,10.00
2023-01-13T05:51:03.595Z,10.00
2023-01-13T05:53:31.292Z,10.00
2023-01-13T05:55:58.869Z,10.00
2023-01-13T05:58:27.709Z,10.00
2023-01-13T06:01:06.174Z,10.00
2023-01-13T06:03:33.094Z,10.00
2023-01-13T06:06:03.986Z,10.00
2023-01-13T06:08:31.290Z,10.00
2023-01-13T06:10:58.230Z,10.10
2023-01-13T06:13:31.039Z,10.00
2023-01-13T06:15:59.136Z,10.00
2023-01-13T06:18:26.934Z,10.00
2023-01-13T06:20:53.817Z,10.00
2023-01-13T06:23:20.751Z,10.10
2023-01-13T06:26:15.862Z,10.10
2023-01-13T06:28:43.031Z,10.10
2023-01-13T06:31:10.813Z,10.10
2023-01-13T06:33:40.736Z,10.10
2023-01-13T06:36:12.137Z,10.10
2023-01-13T06:38:42.270Z,10.10
2023-01-13T06:41:09.314Z,10.20
2023-01-13T06:43:38.381Z,10.20
2023-01-13T06:46:07.902Z,10.20
2023-01-13T06:48:35.621Z,10.20
2023-01-13T06:51:04.085Z,10.20
2023-01-13T06:53:31.395Z,10.20
2023-01-13T06:56:03.063Z,10.20
2023-01-13T06:58:32.049Z,10.20
2023-01-13T07:01:02.266Z,10.20
2023-01-13T07:03:29.471Z,10.10
2023-01-13T07:05:57.359Z,10.10
2023-01-13T07:08:24.665Z,10.10
2023-01-13T07:10:54.349Z,10.10
2023-01-13T07:13:39.816Z,10.10
2023-01-13T07:16:08.458Z,10.10
2023-01-13T07:18:36.179Z,10.10
2023-01-13T07:21:07.853Z,10.10
2023-01-13T07:23:39.823Z,10.10
2023-01-13T07:26:09.173Z,10.10
2023-01-13T07:28:38.917Z,10.10
2023-01-13T07:31:06.387Z,10.10
2023-01-13T07:33:33.520Z,10.10
2023-01-13T07:36:04.019Z,10.10
2023-01-13T07:38:32.313Z,10.10
2023-01-13T07:41:19.318Z,10.10
2023-01-13T07:43:46.231Z,10.10
2023-01-13T07:46:13.251Z,10.10
2023-01-13T07:48:42.802Z,10.10
2023-01-13T07:51:12.192Z,10.10
2023-01-13T07:53:41.588Z,10.10
2023-01-13T07:56:08.689Z,10.10
2023-01-13T07:58:39.121Z,10.00
2023-01-13T08:01:12.212Z,10.00
2023-01-13T08:03:41.598Z,10.00
2023-01-13T08:06:09.826Z,10.00
2023-01-13T08:08:37.049Z,10.00
2023-01-13T08:11:05.637Z,10.00
2023-01-13T08:13:32.755Z,10.00
2023-01-13T08:16:05.369Z,10.00
2023-01-13T08:18:33.609Z,10.00
2023-01-13T08:21:11.026Z,10.00
2023-01-13T08:23:42.798Z,10.00
2023-01-13T08:26:16.040Z,10.10
2023-01-13T08:28:43.476Z,10.00
2023-01-13T08:31:16.179Z,10.00
2023-01-13T08:33:43.836Z,10.00
2023-01-13T08:36:12.394Z,10.00
2023-01-13T08:38:42.475Z,10.00
2023-01-13T08:41:14.833Z,10.00
2023-01-13T08:43:44.092Z,10.00
2023-01-13T08:46:11.535Z,10.00
2023-01-13T08:48:38.552Z,10.10
2023-01-13T08:51:09.017Z,10.10
2023-01-13T08:53:36.495Z,10.10
2023-01-13T08:56:08.513Z,10.10
2023-01-13T08:58:35.577Z,10.10
2023-01-13T09:01:06.960Z,10.10
2023-01-13T09:03:34.025Z,10.00
2023-01-13T09:06:00.981Z,10.00
2023-01-13T09:08:30.380Z,10.00
2023-01-13T09:11:00.595Z,10.00
2023-01-13T09:13:27.502Z,10.00
2023-01-13T09:15:56.691Z,10.00
2023-01-13T09:18:23.876Z,10.00
2023-01-13T09:20:50.835Z,10.00
2023-01-13T09:23:17.886Z,10.00
2023-01-13T09:25:47.321Z,10.00
2023-01-13T09:28:14.171Z,10.00
2023-01-13T09:30:41.336Z,10.00
2023-01-13T09:33:26.893Z,10.00
2023-01-13T09:36:01.819Z,10.00
2023-01-13T09:38:28.922Z,10.10
2023-01-13T09:40:58.657Z,10.20
2023-01-13T09:43:54.278Z,10.20
2023-01-13T09:46:49.144Z,10.20
2023-01-13T09:49:34.515Z,10.10
2023-01-13T09:52:27.015Z,10.10
2023-01-13T09:55:02.730Z,10.00
2023-01-13T09:57:36.734Z,10.00
2023-01-13T10:00:12.683Z,10.00
2023-01-13T10:02:51.537Z,9.90
2023-01-13T10:05:39.332Z,9.90
2023-01-13T10:08:13.473Z,9.90
2023-01-13T10:10:47.110Z,9.90
2023-01-13T10:13:20.955Z,9.90
2023-01-13T10:16:04.033Z,9.90
2023-01-13T10:18:33.975Z,9.80
2023-01-13T10:21:45.569Z,9.80
2023-01-13T10:24:43.396Z,9.80
2023-01-13T10:27:23.161Z,9.90
2023-01-13T10:29:50.141Z,9.90
2023-01-13T10:32:17.049Z,9.90
2023-01-13T10:34:51.777Z,9.90
2023-01-13T10:37:26.456Z,9.90
2023-01-13T10:40:00.472Z,9.90
2023-01-13T10:42:27.977Z,9.90
2023-01-13T10:44:57.143Z,9.90
2023-01-13T10:47:31.033Z,9.90
2023-01-13T10:50:28.985Z,10.00
2023-01-13T10:53:18.301Z,9.90
2023-01-13T10:56:04.584Z,9.90
2023-01-13T10:58:31.420Z,9.90
2023-01-13T11:01:04.797Z,10.00
2023-01-13T11:03:38.168Z,10.00
2023-01-13T11:06:19.040Z,10.00
2023-01-13T11:08:49.440Z,10.10
2023-01-13T11:11:43.445Z,10.20
2023-01-13T11:14:37.045Z,10.20
2023-01-13T11:17:12.187Z,10.30
2023-01-13T11:19:47.600Z,10.20
2023-01-13T11:22:23.397Z,10.10
2023-01-13T11:25:02.732Z,10.10
2023-01-13T11:27:38.927Z,10.00
2023-01-13T11:30:35.342Z,10.00
2023-01-13T11:33:13.910Z,10.00
2023-01-13T11:36:07.662Z,10.00
2023-01-13T11:38:48.479Z,10.00
2023-01-13T11:41:36.433Z,10.00
2023-01-13T11:44:11.384Z,10.00
2023-01-13T11:46:40.885Z,10.00
2023-01-13T11:49:16.937Z,10.00
2023-01-13T11:52:12.477Z,10.00
2023-01-13T11:55:10.474Z,10.00
2023-01-13T11:57:52.248Z,10.10
2023-01-13T12:00:33.240Z,10.10
2023-01-13T12:03:03.329Z,10.10
2023-01-13T12:05:40.325Z,10.10
2023-01-13T12:08:31.113Z,10.10
2023-01-13T12:11:16.436Z,10.10
2023-01-13T12:14:00.778Z,10.10
2023-01-13T12:16:34.158Z,10.10
2023-01-13T12:19:07.478Z,10.10
2023-01-13T12:21:54.913Z,10.10
2023-01-13T12:24:47.948Z,10.10
2023-01-13T12:27:17.872Z,10.10
2023-01-13T12:29:47.026Z,10.10
2023-01-13T12:32:21.331Z,10.10
2023-01-13T12:35:12.127Z,10.10
2023-01-13T12:37:54.530Z,10.20
2023-01-13T12:40:55.380Z,10.20
2023-01-13T12:43:42.945Z,10.20
2023-01-13T12:46:19.069Z,10.20
2023-01-13T12:48:56.693Z,10.20
2023-01-13T12:51:23.539Z,10.20
2023-01-13T12:53:51.157Z,10.20
2023-01-13T12:56:46.877Z,10.20
2023-01-13T12:59:17.069Z,10.30
2023-01-13T13:01:48.267Z,10.40
2023-01-13T13:04:19.907Z,10.40
2023-01-13T13:07:06.575Z,10.40
2023-01-13T13:09:42.477Z,10.50
2023-01-13T13:12:50.035Z,10.60
2023-01-13T13:15:35.244Z,10.70
2023-01-13T13:18:17.389Z,10.60
2023-01-13T13:20:57.746Z,10.60
2023-01-13T13:23:39.308Z,10.60
2023-01-13T13:26:14.551Z,10.60
2023-01-13T13:28:54.681Z,10.60
2023-01-13T13:31:30.209Z,10.60
2023-01-13T13:34:11.647Z,10.70
2023-01-13T13:36:58.781Z,10.60
2023-01-13T13:39:50.154Z,10.60
2023-01-13T13:42:40.532Z,10.50
2023-01-13T13:45:39.064Z,10.50
2023-01-13T13:48:25.473Z,10.40
2023-01-13T13:51:01.756Z,10.40
2023-01-13T13:53:41.011Z,10.30
2023-01-13T13:56:20.737Z,10.30
2023-01-13T13:58:49.269Z,10.20
2023-01-13T14:01:27.833Z,10.20
2023-01-13T14:04:12.705Z,10.20
2023-01-13T14:06:50.535Z,10.20
2023-01-13T14:09:19.107Z,10.20
2023-01-13T14:11:59.659Z,10.20
2023-01-13T14:14:26.767Z,10.20
2023-01-13T14:16:55.011Z,10.20
2023-01-13T14:19:28.015Z,10.20
2023-01-13T14:21:57.084Z,10.20
2023-01-13T14:24:25.033Z,10.20
2023-01-13T14:26:53.172Z,10.20
2023-01-13T14:29:23.620Z,10.20
2023-01-13T14:31:54.487Z,10.20
2023-01-13T14:34:32.553Z,10.20
2023-01-13T14:37:03.752Z,10.20
2023-01-13T14:39:38.097Z,10.20
2023-01-13T14:42:18.559Z,10.20
2023-01-13T14:44:48.562Z,10.20
2023-01-13T14:47:20.644Z,10.20
2023-01-13T14:50:05.814Z,10.20
2023-01-13T14:52:36.606Z,10.20
2023-01-13T14:55:10.177Z,10.20
2023-01-13T14:57:41.643Z,10.10
2023-01-13T15:00:14.705Z,10.10
2023-01-13T15:02:56.019Z,10.10
2023-01-13T15:05:26.867Z,10.10
2023-01-13T15:08:13.875Z,10.10
2023-01-13T15:10:48.608Z,10.10
2023-01-13T15:13:32.022Z,10.00
2023-01-13T15:16:01.325Z,10.00
2023-01-13T15:18:28.432Z,9.90
2023-01-13T15:20:57.995Z,9.90
2023-01-13T15:23:29.604Z,9.90
2023-01-13T15:25:59.350Z,9.90
2023-01-13T15:28:27.218Z,9.80
2023-01-13T15:30:58.102Z,9.80
2023-01-13T15:33:30.150Z,9.80
2023-01-13T15:35:57.064Z,9.70
2023-01-13T15:38:26.386Z,9.70
2023-01-13T15:40:55.521Z,9.70
2023-01-13T15:43:42.243Z,9.70
2023-01-13T15:46:36.261Z,9.70
2023-01-13T15:49:23.120Z,9.60
2023-01-13T15:51:50.351Z,9.70
2023-01-13T15:54:19.826Z,9.60
2023-01-13T15:56:48.887Z,9.60
2023-01-13T15:59:55.478Z,9.60
2023-01-13T16:02:23.537Z,9.70
2023-01-13T16:04:53.621Z,9.60
2023-01-13T16:07:24.034Z,9.70
2023-01-13T16:09:51.772Z,9.70
2023-01-13T16:12:18.628Z,9.70
2023-01-13T16:14:50.377Z,9.70
2023-01-13T16:17:22.864Z,9.70
2023-01-13T16:19:51.898Z,9.70
2023-01-13T16:22:22.982Z,9.70
2023-01-13T16:24:51.946Z,9.70
2023-01-13T16:27:20.660Z,9.70
2023-01-13T16:29:50.177Z,9.60
2023-01-13T16:32:17.503Z,9.60
2023-01-13T16:34:44.662Z,9.60
2023-01-13T16:37:25.870Z,9.60
2023-01-13T16:39:53.981Z,9.60
2023-01-13T16:42:21.098Z,9.60
2023-01-13T16:44:49.048Z,9.50
2023-01-13T16:47:17.629Z,9.50
2023-01-13T16:49:45.414Z,9.60
2023-01-13T16:52:12.324Z,9.50
2023-01-13T16:54:39.211Z,9.50
2023-01-13T16:57:10.779Z,9.50
2023-01-13T16:59:37.673Z,9.50
2023-01-13T17:02:05.101Z,9.50
2023-01-13T17:04:34.227Z,9.50
2023-01-13T17:07:04.421Z,9.50
2023-01-13T17:09:31.620Z,9.40
2023-01-13T17:11:58.923Z,9.40
2023-01-13T17:14:26.436Z,9.40
2023-01-13T17:16:58.373Z,9.40
2023-01-13T17:19:25.748Z,9.40
2023-01-13T17:21:52.792Z,9.40
2023-01-13T17:24:24.633Z,9.40
2023-01-13T17:26:51.741Z,9.30
2023-01-13T17:29:27.611Z,9.30
2023-01-13T17:31:54.952Z,9.30
2023-01-13T17:34:22.033Z,9.30
2023-01-13T17:36:51.680Z,9.30
2023-01-13T17:39:24.290Z,9.30
2023-01-13T17:41:56.000Z,9.30
2023-01-13T17:44:23.551Z,9.30
2023-01-13T17:46:52.327Z,9.30
2023-01-13T17:49:21.228Z,9.30
2023-01-13T17:51:50.981Z,9.30
2023-01-13T17:54:18.475Z,9.20
2023-01-13T17:56:47.945Z,9.20
2023-01-13T17:59:17.720Z,9.20
2023-01-13T18:01:49.563Z,9.20
2023-01-13T18:04:21.003Z,9.20
2023-01-13T18:06:48.904Z,9.20
2023-01-13T18:09:16.690Z,9.20
2023-01-13T18:11:44.234Z,9.20
2023-01-13T18:14:14.550Z,9.20
2023-01-13T18:16:41.512Z,9.20
2023-01-13T18:19:29.207Z,9.20
2023-01-13T18:22:14.660Z,9.20
2023-01-13T18:25:00.159Z,9.20
2023-01-13T18:27:33.537Z,9.20
2023-01-13T18:30:01.765Z,9.30
2023-01-13T18:32:32.941Z,9.30
2023-01-13T18:35:06.739Z,9.30
2023-01-13T18:37:41.927Z,9.30
2023-01-13T18:40:11.789Z,9.30
2023-01-13T18:42:58.785Z,9.30
2023-01-13T18:45:28.726Z,9.30
2023-01-13T18:47:58.205Z,9.30
2023-01-13T18:50:28.310Z,9.30
2023-01-13T18:52:55.940Z,9.30
2023-01-13T18:55:23.514Z,9.30
2023-01-13T18:57:51.206Z,9.30
2023-01-13T19:00:20.217Z,9.30
2023-01-13T19:05:34.441Z,9.30
2023-01-13T19:08:01.616Z,9.30
2023-01-13T19:10:31.725Z,9.30
2023-01-13T19:12:58.858Z,9.40
2023-01-13T19:15:28.002Z,9.30
2023-01-13T19:17:54.952Z,9.30
2023-01-13T19:20:22.279Z,9.30
2023-01-13T19:22:54.011Z,9.30
2023-01-13T19:25:21.032Z,9.30
2023-01-13T19:27:48.083Z,9.30
2023-01-13T19:30:15.039Z,9.40
2023-01-13T19:32:46.631Z,9.30
2023-01-13T19:35:17.354Z,9.30
2023-01-13T19:37:46.771Z,9.30
2023-01-13T19:40:16.466Z,9.30
2023-01-13T19:43:02.977Z,9.30
2023-01-13T19:45:32.255Z,9.30
2023-01-13T19:48:04.857Z,9.30
2023-01-13T19:50:35.620Z,9.30
2023-01-13T19:53:03.041Z,9.30
2023-01-13T19:55:32.512Z,9.20
2023-01-13T19:57:59.942Z,9.20
2023-01-13T20:00:26.993Z,9.20
2023-01-13T20:03:00.696Z,9.20
2023-01-13T20:05:32.014Z,9.20
2023-01-13T20:07:59.489Z,9.20
2023-01-13T20:10:30.574Z,9.20
2023-01-13T20:12:57.453Z,9.20
2023-01-13T20:15:24.640Z,9.10
2023-01-13T20:17:54.327Z,9.20
2023-01-13T20:20:23.665Z,9.10
2023-01-13T20:22:50.581Z,9.10
2023-01-13T20:25:20.621Z,9.20
2023-01-13T20:27:48.188Z,9.10
2023-01-13T20:30:15.696Z,9.20
2023-01-13T20:32:45.337Z,9.10
2023-01-13T20:35:15.314Z,9.10
2023-01-13T20:37:43.352Z,9.10
2023-01-13T20:40:15.972Z,9.10
2023-01-13T20:42:45.088Z,9.10
2023-01-13T20:45:21.549Z,9.10
2023-01-13T20:47:50.795Z,9.10
2023-01-13T20:50:18.167Z,9.10
2023-01-13T20:52:45.349Z,9.10
2023-01-13T20:55:12.934Z,9.10
2023-01-13T20:57:48.849Z,9.10
2023-01-13T21:00:19.430Z,9.10
2023-01-13T21:02:46.451Z,9.10
2023-01-13T21:05:15.465Z,9.10
2023-01-13T21:07:45.027Z,9.00
2023-01-13T21:10:14.155Z,9.00
2023-01-13T21:13:02.267Z,9.00
2023-01-13T21:15:29.140Z,9.00
2023-01-13T21:18:14.569Z,9.00
2023-01-13T21:20:41.816Z,9.00
2023-01-13T21:23:10.696Z,8.90
2023-01-13T21:25:39.649Z,8.90
2023-01-13T21:28:08.158Z,8.90
2023-01-13T21:30:38.569Z,8.90
2023-01-13T21:33:06.257Z,8.90
2023-01-13T21:35:33.341Z,8.80
2023-01-13T21:38:00.193Z,8.80
2023-01-13T21:40:27.125Z,8.80
2023-01-13T21:43:12.446Z,8.80
2023-01-13T21:45:58.394Z,8.80
2023-01-13T21:48:25.385Z,8.80
2023-01-13T21:50:52.448Z,8.80
2023-01-13T21:53:19.393Z,8.80
2023-01-13T21:55:51.976Z,8.90
2023-01-13T21:58:21.285Z,8.90
2023-01-13T22:00:49.746Z,8.90
2023-01-13T22:03:18.417Z,8.90
2023-01-13T22:05:52.573Z,8.90
2023-01-13T22:08:19.416Z,8.90
2023-01-13T22:10:57.296Z,8.90
2023-01-13T22:13:43.133Z,8.90
2023-01-13T22:16:10.240Z,8.80
2023-01-13T22:18:41.856Z,8.80
2023-01-13T22:21:08.862Z,8.80
2023-01-13T22:23:35.727Z,8.80
2023-01-13T22:26:04.062Z,8.80
2023-01-13T22:28:46.492Z,8.80
2023-01-13T22:31:19.271Z,8.80
2023-01-13T22:33:48.701Z,8.80
2023-01-13T22:36:16.226Z,8.80
2023-01-13T22:38:43.100Z,8.70
2023-01-13T22:41:10.710Z,8.70
2023-01-13T22:43:40.884Z,8.70
2023-01-13T22:46:12.787Z,8.70
2023-01-13T22:48:43.004Z,8.60
2023-01-13T22:51:18.620Z,8.60
2023-01-13T22:53:45.566Z,8.60
2023-01-13T22:56:21.917Z,8.60
2023-01-13T22:58:53.340Z,8.60
2023-01-13T23:01:23.711Z,8.60
2023-01-13T23:03:50.970Z,8.60
2023-01-13T23:06:19.022Z,8.50
2023-01-13T23:08:46.706Z,8.50
2023-01-13T23:11:15.934Z,8.50
2023-01-13T23:13:46.015Z,8.60
2023-01-13T23:16:16.420Z,8.50
2023-01-13T23:18:48.673Z,8.50
2023-01-13T23:21:27.297Z,8.50
2023-01-13T23:23:58.684Z,8.50
2023-01-13T23:26:27.143Z,8.50
2023-01-13T23:28:57.768Z,8.40
2023-01-13T23:31:27.022Z,8.50
2023-01-13T23:33:53.947Z,8.50
2023-01-13T23:36:25.295Z,8.40
2023-01-13T23:38:52.945Z,8.40
2023-01-13T23:41:24.068Z,8.40
2023-01-13T23:43:56.799Z,8.40
2023-01-13T23:46:26.856Z,8.40
2023-01-13T23:48:56.191Z,8.40
2023-01-13T23:51:27.299Z,8.40
2023-01-13T23:53:54.450Z,8.40
2023-01-13T23:56:23.726Z,8.40
2023-01-13T23:58:51.413Z,8.40
